This is the latest recevied weather packets stored in our database for station/object Ostrach. If no packets are shown the sender has not sent any weather packets the latest 10 day(s).
| Time | Temp. | Humidity | Pressure | Rain* | Wind** | Luminosity | Snow |
|---|---|---|---|---|---|---|---|
| 1777856531 | 9.44° C | 80% | 1012.1 hPa | 0 mm | - | - | - |
| 1777854730 | 10° C | 77% | 1012.5 hPa | 0 mm | - | - | - |
| 1777852928 | 10.56° C | 77% | 1012.7 hPa | 0 mm | - | - | - |
| 1777851129 | 11.11° C | 74% | 1012.8 hPa | 0 mm | - | - | - |
| 1777849329 | 12.22° C | 71% | 1013 hPa | 0 mm | - | - | - |
| 1777847530 | 13.33° C | 65% | 1013.1 hPa | 0 mm | - | - | - |
| 1777845732 | 12.22° C | 67% | 1013 hPa | 0 mm | - | - | - |
| 1777843930 | 12.22° C | 68% | 1012.6 hPa | 0 mm | - | - | - |
| 1777842131 | 13.33° C | 62% | 1012.4 hPa | 0 mm | - | - | - |
| 1777840329 | 14.44° C | 57% | 1012.3 hPa | 0 mm | - | - | - |
| 1777838531 | 15.56° C | 49% | 1011.9 hPa | 0 mm | - | - | - |
| 1777836730 | 16.67° C | 45% | 1011.6 hPa | 0 mm | - | - | - |
| 1777834930 | 17.22° C | 44% | 1011.5 hPa | 0 mm | - | - | - |
| 1777833130 | 18.33° C | 40% | 1011.1 hPa | 0 mm | - | - | - |
| 1777831330 | 20.56° C | 48% | 1010.2 hPa | 0 mm | - | - | - |
| 1777829530 | 21.67° C | 44% | 1010.2 hPa | 0 mm | - | - | - |
| 1777827731 | 22.22° C | 41% | 1010 hPa | 0 mm | - | - | - |
| 1777825930 | 23.33° C | 38% | 1009.9 hPa | 0 mm | - | - | - |
| 1777824131 | 24.44° C | 32% | 1009.6 hPa | 0 mm | - | - | - |
| 1777822330 | 23.33° C | 37% | 1009.8 hPa | 0 mm | - | - | - |
| 1777820530 | 23.33° C | 30% | 1010 hPa | 0 mm | - | - | - |
| 1777818730 | 24.44° C | 28% | 1010.2 hPa | 0 mm | - | - | - |
| 1777816930 | 25° C | 28% | 1010.3 hPa | 0 mm | - | - | - |
| 1777815131 | 24.44° C | 28% | 1010.7 hPa | 0 mm | - | - | - |
| 1777813330 | 24.44° C | 24% | 1011.1 hPa | 0 mm | - | - | - |
* Rain since midnight (hover to see other rain measurements)
** Current wind speed in m/s (hover to see current wind gust speed)